createdAt,value
2022-08-05T00:00:18.700Z,100.00
2022-08-05T00:02:50.944Z,100.00
2022-08-05T00:06:03.226Z,100.00
2022-08-05T00:08:34.148Z,100.00
2022-08-05T00:10:56.967Z,100.00
2022-08-05T00:13:38.981Z,100.00
2022-08-05T00:16:08.759Z,100.00
2022-08-05T00:18:38.014Z,100.00
2022-08-05T00:21:06.403Z,100.00
2022-08-05T00:23:45.643Z,100.00
2022-08-05T00:26:22.310Z,100.00
2022-08-05T00:28:52.187Z,100.00
2022-08-05T00:31:53.063Z,100.00
2022-08-05T00:34:55.795Z,100.00
2022-08-05T00:37:20.097Z,100.00
2022-08-05T00:39:58.778Z,100.00
2022-08-05T00:42:34.539Z,100.00
2022-08-05T00:45:08.464Z,100.00
2022-08-05T00:47:53.337Z,100.00
2022-08-05T00:50:25.280Z,100.00
2022-08-05T00:52:55.066Z,100.00
2022-08-05T00:55:23.493Z,100.00
2022-08-05T00:58:11.389Z,100.00
2022-08-05T01:00:42.139Z,100.00
2022-08-05T01:03:22.278Z,100.00
2022-08-05T01:05:51.238Z,100.00
2022-08-05T01:08:41.838Z,100.00
2022-08-05T01:11:13.619Z,100.00
2022-08-05T01:13:59.081Z,100.00
2022-08-05T01:16:37.621Z,100.00
2022-08-05T01:19:17.613Z,100.00
2022-08-05T01:22:08.061Z,100.00
2022-08-05T01:24:57.919Z,100.00
2022-08-05T01:27:55.163Z,99.89
2022-08-05T01:30:34.534Z,99.10
2022-08-05T01:33:08.291Z,98.30
2022-08-05T01:35:51.540Z,97.73
2022-08-05T01:38:27.482Z,98.50
2022-08-05T01:40:59.753Z,97.98
2022-08-05T01:43:32.059Z,99.22
2022-08-05T01:46:07.150Z,99.56
2022-08-05T01:48:49.821Z,99.86
2022-08-05T01:51:19.556Z,100.00
2022-08-05T01:53:57.545Z,99.17
2022-08-05T01:58:11.344Z,98.83
2022-08-05T01:59:23.080Z,98.56
2022-08-05T02:01:54.847Z,98.30
2022-08-05T02:04:25.563Z,98.62
2022-08-05T02:06:53.992Z,98.57
2022-08-05T02:09:21.971Z,98.52
2022-08-05T02:11:59.963Z,99.58
2022-08-05T02:14:33.391Z,100.00
2022-08-05T02:17:07.838Z,99.36
2022-08-05T02:19:49.473Z,100.00
2022-08-05T02:22:26.381Z,100.00
2022-08-05T02:25:05.751Z,100.00
2022-08-05T02:27:57.976Z,100.00
2022-08-05T02:30:34.488Z,100.00
2022-08-05T02:33:03.847Z,100.00
2022-08-05T02:35:37.656Z,100.00
2022-08-05T02:38:19.479Z,100.00
2022-08-05T02:40:48.176Z,100.00
2022-08-05T02:43:17.835Z,100.00
2022-08-05T02:45:52.897Z,100.00
2022-08-05T02:48:29.496Z,100.00
2022-08-05T02:51:00.242Z,100.00
2022-08-05T02:53:29.112Z,100.00
2022-08-05T02:56:09.304Z,100.00
2022-08-05T02:58:37.956Z,100.00
2022-08-05T03:01:19.450Z,100.00
2022-08-05T03:04:03.146Z,100.00
2022-08-05T03:06:56.161Z,100.00
2022-08-05T03:09:27.194Z,100.00
2022-08-05T03:12:06.176Z,100.00
2022-08-05T03:14:45.790Z,100.00
2022-08-05T03:17:15.399Z,100.00
2022-08-05T03:19:45.594Z,100.00
2022-08-05T03:22:16.639Z,100.00
2022-08-05T03:24:50.656Z,100.00
2022-08-05T03:27:19.769Z,100.00
2022-08-05T03:30:07.801Z,100.00
2022-08-05T03:32:37.653Z,100.00
2022-08-05T03:35:06.784Z,100.00
2022-08-05T03:37:40.982Z,100.00
2022-08-05T03:40:15.532Z,100.00
2022-08-05T03:42:53.063Z,100.00
2022-08-05T03:45:23.355Z,100.00
2022-08-05T03:47:56.843Z,100.00
2022-08-05T03:50:26.991Z,100.00
2022-08-05T03:55:33.957Z,100.00
2022-08-05T03:56:09.949Z,100.00
2022-08-05T03:58:43.999Z,100.00
2022-08-05T04:01:14.279Z,100.00
2022-08-05T04:04:05.382Z,100.00
2022-08-05T04:06:36.395Z,100.00
2022-08-05T04:09:06.354Z,100.00
2022-08-05T04:11:50.636Z,100.00
2022-08-05T04:14:29.878Z,100.00
2022-08-05T04:17:00.651Z,100.00
2022-08-05T04:19:30.877Z,100.00
2022-08-05T04:22:09.352Z,100.00
2022-08-05T04:24:44.384Z,100.00
2022-08-05T04:27:13.101Z,100.00
2022-08-05T04:29:41.298Z,100.00
2022-08-05T04:32:09.272Z,100.00
2022-08-05T04:34:42.625Z,100.00
2022-08-05T04:37:10.982Z,100.00
2022-08-05T04:39:39.179Z,100.00
2022-08-05T04:42:09.157Z,100.00
2022-08-05T04:44:37.111Z,100.00
2022-08-05T04:47:09.409Z,100.00
2022-08-05T04:50:02.610Z,100.00
2022-08-05T04:52:28.110Z,100.00
2022-08-05T04:54:58.852Z,100.00
2022-08-05T04:57:29.229Z,100.00
2022-08-05T04:59:58.527Z,100.00
2022-08-05T05:02:37.402Z,100.00
2022-08-05T05:05:16.730Z,100.00
2022-08-05T05:07:56.663Z,100.00
2022-08-05T05:10:29.730Z,100.00
2022-08-05T05:12:57.821Z,100.00
2022-08-05T05:15:56.796Z,100.00
2022-08-05T05:18:15.131Z,100.00
2022-08-05T05:20:58.525Z,100.00
2022-08-05T05:23:26.551Z,100.00
2022-08-05T05:25:54.425Z,100.00
2022-08-05T05:28:22.238Z,100.00
2022-08-05T05:30:52.686Z,100.00
2022-08-05T05:33:23.343Z,100.00
2022-08-05T05:35:51.857Z,100.00
2022-08-05T05:38:27.287Z,100.00
2022-08-05T05:40:58.995Z,100.00
2022-08-05T05:43:54.267Z,100.00
2022-08-05T05:46:17.756Z,100.00
2022-08-05T05:48:49.177Z,100.00
2022-08-05T05:51:21.919Z,100.00
2022-08-05T05:53:57.251Z,100.00
2022-08-05T05:56:32.618Z,100.00
2022-08-05T05:59:05.374Z,100.00
2022-08-05T06:01:37.761Z,100.00
2022-08-05T06:04:08.057Z,100.00
2022-08-05T06:06:36.451Z,100.00
2022-08-05T06:09:07.487Z,100.00
2022-08-05T06:11:35.701Z,100.00
2022-08-05T06:14:07.444Z,100.00
2022-08-05T06:16:37.297Z,100.00
2022-08-05T06:19:07.577Z,100.00
2022-08-05T06:21:38.854Z,100.00
2022-08-05T06:24:12.811Z,100.00
2022-08-05T06:26:52.137Z,100.00
2022-08-05T06:29:43.194Z,100.00
2022-08-05T06:32:24.943Z,100.00
2022-08-05T06:34:56.090Z,100.00
2022-08-05T06:37:58.368Z,100.00
2022-08-05T06:40:18.161Z,100.00
2022-08-05T06:42:52.011Z,100.00
2022-08-05T06:45:44.467Z,100.00
2022-08-05T06:48:37.316Z,100.00
2022-08-05T06:50:58.387Z,100.00
2022-08-05T06:53:29.288Z,100.00
2022-08-05T06:55:59.468Z,100.00
2022-08-05T06:58:34.697Z,100.00
2022-08-05T07:01:05.189Z,100.00
2022-08-05T07:03:33.455Z,100.00
2022-08-05T07:06:05.832Z,100.00
2022-08-05T07:08:43.170Z,100.00
2022-08-05T07:11:17.502Z,100.00
2022-08-05T07:14:07.555Z,100.00
2022-08-05T07:18:09.381Z,100.00
2022-08-05T07:22:35.895Z,100.00
2022-08-05T07:25:23.258Z,100.00
2022-08-05T07:27:58.239Z,100.00
2022-08-05T07:30:32.820Z,100.00
2022-08-05T07:33:05.372Z,100.00
2022-08-05T07:36:01.695Z,100.00
2022-08-05T07:38:32.210Z,100.00
2022-08-05T07:42:06.759Z,100.00
2022-08-05T07:43:56.182Z,100.00
2022-08-05T07:46:26.170Z,100.00
2022-08-05T07:49:01.614Z,100.00
2022-08-05T07:51:36.625Z,100.00
2022-08-05T07:54:09.691Z,100.00
2022-08-05T07:57:00.265Z,100.00
2022-08-05T07:59:38.341Z,100.00
2022-08-05T08:02:15.210Z,100.00
2022-08-05T08:04:44.870Z,100.00
2022-08-05T08:07:13.225Z,100.00
2022-08-05T08:09:41.196Z,100.00
2022-08-05T08:12:20.229Z,100.00
2022-08-05T08:15:02.291Z,100.00
2022-08-05T08:17:31.190Z,100.00
2022-08-05T08:20:22.956Z,100.00
2022-08-05T08:22:52.105Z,100.00
2022-08-05T08:25:27.157Z,100.00
2022-08-05T08:28:18.027Z,100.00
2022-08-05T08:30:49.819Z,100.00
2022-08-05T08:33:19.205Z,100.00
2022-08-05T08:35:53.950Z,100.00
2022-08-05T08:38:35.087Z,100.00
2022-08-05T08:41:08.321Z,100.00
2022-08-05T08:45:16.389Z,100.00
2022-08-05T08:46:29.199Z,100.00
2022-08-05T08:49:06.121Z,100.00
2022-08-05T08:52:02.955Z,100.00
2022-08-05T08:54:33.705Z,100.00
2022-08-05T08:57:11.290Z,100.00
2022-08-05T08:59:41.911Z,100.00
2022-08-05T09:02:19.007Z,100.00
2022-08-05T09:05:16.994Z,100.00
2022-08-05T09:07:39.756Z,100.00
2022-08-05T09:10:27.827Z,100.00
2022-08-05T09:13:04.871Z,100.00
2022-08-05T09:15:36.925Z,100.00
2022-08-05T09:18:09.419Z,100.00
2022-08-05T09:20:38.288Z,100.00
2022-08-05T09:23:18.766Z,100.00
2022-08-05T09:26:03.017Z,100.00
2022-08-05T09:28:34.519Z,100.00
2022-08-05T09:31:22.386Z,100.00
2022-08-05T09:33:56.580Z,100.00
2022-08-05T09:36:27.744Z,100.00
2022-08-05T09:39:03.730Z,100.00
2022-08-05T09:42:00.483Z,100.00
2022-08-05T09:44:39.906Z,100.00
2022-08-05T09:47:15.793Z,100.00
2022-08-05T09:50:01.535Z,100.00
2022-08-05T09:52:32.365Z,100.00
2022-08-05T09:55:55.053Z,100.00
2022-08-05T09:57:54.676Z,100.00
2022-08-05T10:00:26.786Z,100.00
2022-08-05T10:02:58.608Z,100.00
2022-08-05T10:05:32.978Z,100.00
2022-08-05T10:08:36.552Z,100.00
2022-08-05T10:10:54.661Z,100.00
2022-08-05T10:13:45.817Z,100.00
2022-08-05T10:16:37.600Z,100.00
2022-08-05T10:19:10.187Z,100.00
2022-08-05T10:21:41.295Z,100.00
2022-08-05T10:24:13.244Z,100.00
2022-08-05T10:26:51.858Z,100.00
2022-08-05T10:29:23.965Z,100.00
2022-08-05T10:32:53.219Z,100.00
2022-08-05T10:35:00.873Z,100.00
2022-08-05T10:37:45.009Z,100.00
2022-08-05T10:40:28.312Z,100.00
2022-08-05T10:43:12.413Z,100.00
2022-08-05T10:45:42.332Z,100.00
2022-08-05T10:48:35.063Z,100.00
2022-08-05T10:51:21.724Z,100.00
2022-08-05T10:53:58.169Z,100.00
2022-08-05T10:56:28.673Z,100.00
2022-08-05T10:59:11.458Z,100.00
2022-08-05T11:01:55.643Z,100.00
2022-08-05T11:04:34.359Z,100.00
2022-08-05T11:07:06.965Z,100.00
2022-08-05T11:09:46.058Z,100.00
2022-08-05T11:12:50.882Z,100.00
2022-08-05T11:15:44.025Z,100.00
2022-08-05T11:18:30.074Z,100.00
2022-08-05T11:21:00.091Z,100.00
2022-08-05T11:24:02.722Z,100.00
2022-08-05T11:26:28.031Z,100.00
2022-08-05T11:29:06.659Z,100.00
2022-08-05T11:31:57.537Z,100.00
2022-08-05T11:34:39.900Z,98.97
2022-08-05T11:38:28.239Z,94.14
2022-08-05T11:41:15.457Z,92.42
2022-08-05T11:44:04.950Z,88.20
2022-08-05T11:46:37.898Z,88.23
2022-08-05T11:49:25.695Z,81.34
2022-08-05T11:51:54.327Z,76.08
2022-08-05T11:54:33.094Z,77.49
2022-08-05T11:57:08.661Z,74.50
2022-08-05T11:59:54.068Z,71.82
2022-08-05T12:02:31.482Z,68.06
2022-08-05T12:05:07.385Z,65.05
2022-08-05T12:08:08.670Z,61.75
2022-08-05T12:10:45.612Z,63.04
2022-08-05T12:13:27.809Z,63.15
2022-08-05T12:16:14.616Z,62.36
2022-08-05T12:18:49.578Z,62.17
2022-08-05T12:21:24.226Z,63.72
2022-08-05T12:24:11.325Z,61.01
2022-08-05T12:26:44.053Z,59.76
2022-08-05T12:29:16.437Z,62.67
2022-08-05T12:31:53.752Z,64.35
2022-08-05T12:34:25.952Z,65.93
2022-08-05T12:36:54.437Z,67.80
2022-08-05T12:39:28.287Z,68.99
2022-08-05T12:42:09.909Z,67.36
2022-08-05T12:44:48.010Z,67.08
2022-08-05T12:47:28.623Z,63.95
2022-08-05T12:50:02.153Z,63.05
2022-08-05T12:52:38.768Z,63.26
2022-08-05T12:55:22.174Z,62.01
2022-08-05T12:58:49.514Z,60.85
2022-08-05T13:02:00.182Z,61.40
2022-08-05T13:03:41.553Z,62.00
2022-08-05T13:06:17.243Z,58.79
2022-08-05T13:08:50.741Z,58.16
2022-08-05T13:11:47.073Z,58.46
2022-08-05T13:14:14.750Z,61.17
2022-08-05T13:16:50.799Z,60.31
2022-08-05T13:19:22.334Z,59.45
2022-08-05T13:21:52.510Z,59.20
2022-08-05T13:24:36.206Z,60.95
2022-08-05T13:27:22.912Z,61.11
2022-08-05T13:30:36.153Z,58.71
2022-08-05T13:32:50.600Z,57.45
2022-08-05T13:35:22.100Z,56.81
2022-08-05T13:38:04.908Z,56.38
2022-08-05T13:40:48.037Z,57.04
2022-08-05T13:43:21.822Z,55.30
2022-08-05T13:45:50.701Z,56.18
2022-08-05T13:48:57.850Z,56.46
2022-08-05T13:51:09.605Z,56.62
2022-08-05T13:53:47.969Z,57.87
2022-08-05T13:56:18.777Z,57.35
2022-08-05T13:58:52.727Z,59.90
2022-08-05T14:01:25.827Z,60.10
2022-08-05T14:04:21.915Z,61.74
2022-08-05T14:09:29.867Z,61.63
2022-08-05T14:12:03.976Z,62.77
2022-08-05T14:14:33.754Z,65.42
2022-08-05T14:17:01.873Z,72.11
2022-08-05T14:19:30.615Z,74.85
2022-08-05T14:22:18.455Z,74.11
2022-08-05T14:24:48.587Z,73.00
2022-08-05T14:27:18.780Z,72.78
2022-08-05T14:29:51.287Z,69.88
2022-08-05T14:32:27.074Z,68.07
2022-08-05T14:34:56.756Z,68.09
2022-08-05T14:37:45.425Z,64.76
2022-08-05T14:40:16.930Z,64.65
2022-08-05T14:42:45.027Z,64.54
2022-08-05T14:45:13.315Z,62.78
2022-08-05T14:48:03.162Z,61.36
2022-08-05T14:50:30.901Z,59.23
2022-08-05T14:52:59.568Z,57.56
2022-08-05T14:55:39.046Z,57.88
2022-08-05T14:58:12.125Z,57.02
2022-08-05T15:00:59.822Z,56.28
2022-08-05T15:03:34.042Z,55.40
2022-08-05T15:06:14.838Z,56.56
2022-08-05T15:09:01.295Z,56.45
2022-08-05T15:11:52.363Z,56.89
2022-08-05T15:14:34.595Z,56.61
2022-08-05T15:17:44.563Z,56.73
2022-08-05T15:19:57.920Z,57.73
2022-08-05T15:22:27.190Z,57.11
2022-08-05T15:24:55.578Z,58.15
2022-08-05T15:27:25.872Z,57.76
2022-08-05T15:29:54.289Z,58.79
2022-08-05T15:32:27.385Z,58.19
2022-08-05T15:34:57.085Z,58.57
2022-08-05T15:38:32.842Z,58.93
2022-08-05T15:40:59.683Z,58.75
2022-08-05T15:43:12.816Z,57.22
2022-08-05T15:45:47.822Z,57.16
2022-08-05T15:48:28.718Z,58.08
2022-08-05T15:50:56.638Z,57.50
2022-08-05T15:53:26.545Z,58.18
2022-08-05T15:56:09.141Z,58.04
2022-08-05T15:58:43.468Z,57.89
2022-08-05T16:01:16.372Z,58.68
2022-08-05T16:03:48.352Z,57.61
2022-08-05T16:06:19.864Z,59.37
2022-08-05T16:08:51.123Z,58.46
2022-08-05T16:11:40.076Z,58.75
2022-08-05T16:14:17.195Z,58.32
2022-08-05T16:16:46.300Z,57.66
2022-08-05T16:19:25.669Z,57.75
2022-08-05T16:22:03.382Z,57.25
2022-08-05T16:24:39.827Z,58.15
2022-08-05T16:27:16.176Z,56.52
2022-08-05T16:29:50.389Z,55.95
2022-08-05T16:32:28.453Z,56.60
2022-08-05T16:34:57.745Z,56.08
2022-08-05T16:38:03.341Z,55.36
2022-08-05T16:40:26.539Z,54.33
2022-08-05T16:42:57.348Z,55.37
2022-08-05T16:46:06.026Z,54.52
2022-08-05T16:48:25.124Z,53.76
2022-08-05T16:50:54.353Z,52.79
2022-08-05T16:53:32.397Z,52.87
2022-08-05T16:56:10.615Z,51.88
2022-08-05T16:58:40.753Z,50.49
2022-08-05T17:01:10.800Z,48.54
2022-08-05T17:03:38.892Z,49.14
2022-08-05T17:06:07.447Z,48.85
2022-08-05T17:08:52.125Z,49.28
2022-08-05T17:11:23.965Z,47.38
2022-08-05T17:14:00.293Z,48.03
2022-08-05T17:16:35.863Z,46.50
2022-08-05T17:19:07.402Z,45.58
2022-08-05T17:21:39.396Z,48.02
2022-08-05T17:24:18.438Z,48.30
2022-08-05T17:26:57.440Z,48.08
2022-08-05T17:29:33.083Z,47.49
2022-08-05T17:32:11.243Z,47.25
2022-08-05T17:34:44.402Z,46.62
2022-08-05T17:37:40.864Z,46.04
2022-08-05T17:40:02.139Z,46.88
2022-08-05T17:42:32.968Z,45.69
2022-08-05T17:45:10.079Z,46.57
2022-08-05T17:47:54.107Z,46.58
2022-08-05T17:50:28.190Z,46.31
2022-08-05T17:52:59.973Z,46.24
2022-08-05T17:55:34.333Z,45.69
2022-08-05T17:58:09.439Z,45.62
2022-08-05T18:00:44.407Z,44.96
2022-08-05T18:06:11.179Z,45.54
2022-08-05T18:08:44.142Z,46.13
2022-08-05T18:11:23.934Z,45.96
2022-08-05T18:14:00.676Z,44.95
2022-08-05T18:16:31.621Z,44.51
2022-08-05T18:19:00.808Z,45.34
2022-08-05T18:22:09.114Z,44.54
2022-08-05T18:24:16.340Z,44.64
2022-08-05T18:26:44.163Z,44.69
2022-08-05T18:29:12.029Z,44.65
2022-08-05T18:31:44.650Z,45.05
2022-08-05T18:34:14.848Z,45.16
2022-08-05T18:36:43.674Z,45.44
2022-08-05T18:39:42.264Z,45.38
2022-08-05T18:42:03.661Z,44.79
2022-08-05T18:44:35.353Z,44.72
2022-08-05T18:47:16.955Z,45.03
2022-08-05T18:50:03.407Z,45.56
2022-08-05T18:52:41.604Z,45.35
2022-08-05T18:55:21.448Z,45.01
2022-08-05T18:57:52.680Z,45.24
2022-08-05T19:00:29.044Z,46.68
2022-08-05T19:03:03.366Z,46.25
2022-08-05T19:06:11.128Z,46.63
2022-08-05T19:08:22.409Z,47.29
2022-08-05T19:10:59.623Z,46.82
2022-08-05T19:13:36.126Z,46.74
2022-08-05T19:16:25.366Z,47.65
2022-08-05T19:18:56.702Z,47.59
2022-08-05T19:21:27.533Z,47.99
2022-08-05T19:24:06.902Z,47.33
2022-08-05T19:26:54.847Z,46.83
2022-08-05T19:29:36.126Z,47.47
2022-08-05T19:32:08.559Z,47.65
2022-08-05T19:34:39.676Z,48.65
2022-08-05T19:37:10.498Z,48.51
2022-08-05T19:39:45.888Z,49.03
2022-08-05T19:42:35.803Z,48.88
2022-08-05T19:45:05.858Z,49.24
2022-08-05T19:47:34.688Z,49.34
2022-08-05T19:50:07.853Z,50.19
2022-08-05T19:52:41.707Z,49.61
2022-08-05T19:56:13.796Z,50.22
2022-08-05T19:58:07.104Z,50.15
2022-08-05T20:00:46.896Z,50.49
2022-08-05T20:03:15.219Z,51.14
2022-08-05T20:05:51.692Z,51.08
2022-08-05T20:08:24.227Z,50.60
2022-08-05T20:10:53.411Z,51.19
2022-08-05T20:13:55.060Z,50.61
2022-08-05T20:16:10.879Z,50.72
2022-08-05T20:18:38.715Z,50.67
2022-08-05T20:21:07.824Z,50.80
2022-08-05T20:23:51.301Z,50.94
2022-08-05T20:26:22.039Z,51.09
2022-08-05T20:28:55.569Z,52.70
2022-08-05T20:31:28.762Z,52.45
2022-08-05T20:34:05.738Z,53.20
2022-08-05T20:36:36.380Z,52.14
2022-08-05T20:39:10.371Z,52.43
2022-08-05T20:41:43.870Z,52.64
2022-08-05T20:44:19.223Z,52.62
2022-08-05T20:46:57.779Z,52.97
2022-08-05T20:49:26.174Z,52.94
2022-08-05T20:51:54.360Z,53.37
2022-08-05T20:54:25.257Z,53.27
2022-08-05T20:56:53.160Z,53.68
2022-08-05T20:59:27.055Z,54.10
2022-08-05T21:02:09.889Z,53.79
2022-08-05T21:04:38.386Z,54.80
2022-08-05T21:07:08.473Z,55.31
2022-08-05T21:09:38.300Z,55.50
2022-08-05T21:12:21.672Z,55.53
2022-08-05T21:14:53.993Z,55.46
2022-08-05T21:17:22.748Z,55.48
2022-08-05T21:19:52.027Z,55.44
2022-08-05T21:22:23.577Z,56.18
2022-08-05T21:24:54.303Z,55.85
2022-08-05T21:27:24.733Z,56.18
2022-08-05T21:29:55.816Z,56.77
2022-08-05T21:32:24.658Z,57.31
2022-08-05T21:35:09.031Z,57.59
2022-08-05T21:37:47.313Z,57.54
2022-08-05T21:40:23.296Z,58.18
2022-08-05T21:42:53.511Z,58.77
2022-08-05T21:45:24.728Z,58.93
2022-08-05T21:47:57.259Z,59.18
2022-08-05T21:50:26.286Z,59.77
2022-08-05T21:52:58.896Z,60.21
2022-08-05T21:56:01.720Z,61.53
2022-08-05T21:58:31.965Z,61.47
2022-08-05T22:01:00.779Z,61.18
2022-08-05T22:03:52.738Z,61.95
2022-08-05T22:06:22.833Z,62.80
2022-08-05T22:08:52.144Z,62.92
2022-08-05T22:11:34.462Z,63.11
2022-08-05T22:14:19.471Z,63.13
2022-08-05T22:16:56.048Z,63.45
2022-08-05T22:20:02.747Z,63.51
2022-08-05T22:22:15.425Z,63.80
2022-08-05T22:25:01.662Z,63.92
2022-08-05T22:28:09.782Z,64.31
2022-08-05T22:30:35.408Z,65.15
2022-08-05T22:33:03.833Z,63.99
2022-08-05T22:35:47.743Z,63.31
2022-08-05T22:38:16.722Z,62.84
2022-08-05T22:40:49.998Z,63.34
2022-08-05T22:43:36.944Z,63.50
2022-08-05T22:46:13.181Z,63.76
2022-08-05T22:48:49.025Z,63.77
2022-08-05T22:51:22.647Z,64.77
2022-08-05T22:53:51.994Z,64.23
2022-08-05T22:56:30.768Z,64.05
2022-08-05T22:59:03.219Z,63.54
2022-08-05T23:02:04.630Z,64.14
2022-08-05T23:04:34.348Z,63.34
2022-08-05T23:07:02.164Z,63.64
2022-08-05T23:09:57.252Z,64.68
2022-08-05T23:12:18.446Z,64.57
2022-08-05T23:14:53.136Z,64.93
2022-08-05T23:17:35.037Z,64.75
2022-08-05T23:20:10.425Z,64.19
2022-08-05T23:22:47.686Z,64.23
2022-08-05T23:25:54.854Z,63.15
2022-08-05T23:28:07.120Z,63.49
2022-08-05T23:30:39.820Z,63.65
2022-08-05T23:33:15.932Z,62.92
2022-08-05T23:35:50.862Z,63.97
2022-08-05T23:38:19.136Z,63.67
2022-08-05T23:40:49.852Z,64.04
2022-08-05T23:43:25.685Z,64.97
2022-08-05T23:46:19.881Z,64.84
2022-08-05T23:49:00.942Z,64.53
2022-08-05T23:51:54.013Z,64.89
2022-08-05T23:54:25.878Z,65.27
2022-08-05T23:56:56.005Z,65.46
2022-08-05T23:59:37.349Z,65.30
